sensor_id;sensor_type;location;lat;lon;timestamp;temperature;humidity
19924;DHT22;10124;53.068;18.224;2022-12-20T00:01:34;1.80;1.00
19924;DHT22;10124;53.068;18.224;2022-12-20T00:04:03;1.30;1.00
19924;DHT22;10124;53.068;18.224;2022-12-20T00:06:35;1.40;1.00
19924;DHT22;10124;53.068;18.224;2022-12-20T00:09:06;1.40;1.00
19924;DHT22;10124;53.068;18.224;2022-12-20T00:11:35;1.50;89.20
19924;DHT22;10124;53.068;18.224;2022-12-20T00:14:04;3.40;42.50
19924;DHT22;10124;53.068;18.224;2022-12-20T00:16:31;1.30;99.90
19924;DHT22;10124;53.068;18.224;2022-12-20T00:19:02;1.40;46.80
19924;DHT22;10124;53.068;18.224;2022-12-20T00:21:31;1.50;95.10
19924;DHT22;10124;53.068;18.224;2022-12-20T00:24:00;2.80;99.90
19924;DHT22;10124;53.068;18.224;2022-12-20T00:26:29;1.40;99.90
19924;DHT22;10124;53.068;18.224;2022-12-20T00:28:59;1.50;99.90
19924;DHT22;10124;53.068;18.224;2022-12-20T00:31:28;3.60;99.90
19924;DHT22;10124;53.068;18.224;2022-12-20T00:33:58;1.50;99.90
19924;DHT22;10124;53.068;18.224;2022-12-20T00:36:28;1.50;99.90
19924;DHT22;10124;53.068;18.224;2022-12-20T00:38:57;1.60;99.90
19924;DHT22;10124;53.068;18.224;2022-12-20T00:41:29;1.40;99.90
19924;DHT22;10124;53.068;18.224;2022-12-20T00:43:57;1.60;99.90
19924;DHT22;10124;53.068;18.224;2022-12-20T00:46:25;1.70;1.00
19924;DHT22;10124;53.068;18.224;2022-12-20T00:48:54;1.60;1.00
19924;DHT22;10124;53.068;18.224;2022-12-20T00:51:23;1.60;1.00
19924;DHT22;10124;53.068;18.224;2022-12-20T00:53:52;1.60;1.00
19924;DHT22;10124;53.068;18.224;2022-12-20T00:56:20;1.60;1.00
19924;DHT22;10124;53.068;18.224;2022-12-20T01:01:24;3.20;1.00
19924;DHT22;10124;53.068;18.224;2022-12-20T01:03:52;1.60;1.00
19924;DHT22;10124;53.068;18.224;2022-12-20T01:06:22;1.70;1.00
19924;DHT22;10124;53.068;18.224;2022-12-20T01:08:51;1.90;1.00
19924;DHT22;10124;53.068;18.224;2022-12-20T01:11:30;1.60;1.00
19924;DHT22;10124;53.068;18.224;2022-12-20T01:14:04;1.70;1.00
19924;DHT22;10124;53.068;18.224;2022-12-20T01:16:39;2.00;99.90
19924;DHT22;10124;53.068;18.224;2022-12-20T01:19:09;1.70;99.90
19924;DHT22;10124;53.068;18.224;2022-12-20T01:21:37;1.60;99.90
19924;DHT22;10124;53.068;18.224;2022-12-20T01:24:15;1.60;99.90
19924;DHT22;10124;53.068;18.224;2022-12-20T01:26:43;1.80;1.00
19924;DHT22;10124;53.068;18.224;2022-12-20T01:31:41;1.70;99.90
19924;DHT22;10124;53.068;18.224;2022-12-20T01:34:10;1.70;99.90
19924;DHT22;10124;53.068;18.224;2022-12-20T01:36:39;1.60;1.00
19924;DHT22;10124;53.068;18.224;2022-12-20T01:39:11;1.60;1.00
19924;DHT22;10124;53.068;18.224;2022-12-20T01:41:40;1.60;1.00
19924;DHT22;10124;53.068;18.224;2022-12-20T01:46:46;3.60;1.00
19924;DHT22;10124;53.068;18.224;2022-12-20T01:54:37;1.60;1.00
19924;DHT22;10124;53.068;18.224;2022-12-20T01:57:12;1.60;1.00
19924;DHT22;10124;53.068;18.224;2022-12-20T01:59:43;1.60;1.00
19924;DHT22;10124;53.068;18.224;2022-12-20T02:02:13;1.50;1.00
19924;DHT22;10124;53.068;18.224;2022-12-20T02:04:41;2.50;1.00
19924;DHT22;10124;53.068;18.224;2022-12-20T02:07:11;1.60;1.00
19924;DHT22;10124;53.068;18.224;2022-12-20T02:09:40;1.70;1.00
19924;DHT22;10124;53.068;18.224;2022-12-20T02:17:56;1.60;1.00
19924;DHT22;10124;53.068;18.224;2022-12-20T02:32:31;1.70;1.00
19924;DHT22;10124;53.068;18.224;2022-12-20T02:35:04;1.70;1.00
19924;DHT22;10124;53.068;18.224;2022-12-20T02:37:34;1.60;1.00
19924;DHT22;10124;53.068;18.224;2022-12-20T02:40:03;1.60;1.00
19924;DHT22;10124;53.068;18.224;2022-12-20T02:42:32;1.60;1.00
19924;DHT22;10124;53.068;18.224;2022-12-20T02:45:06;1.70;1.00
19924;DHT22;10124;53.068;18.224;2022-12-20T02:47:58;1.70;1.00
19924;DHT22;10124;53.068;18.224;2022-12-20T02:50:30;1.70;1.00
19924;DHT22;10124;53.068;18.224;2022-12-20T02:52:59;1.70;1.00
19924;DHT22;10124;53.068;18.224;2022-12-20T02:58:52;1.80;1.00
19924;DHT22;10124;53.068;18.224;2022-12-20T03:01:27;1.90;1.00
19924;DHT22;10124;53.068;18.224;2022-12-20T03:03:57;1.80;1.00
19924;DHT22;10124;53.068;18.224;2022-12-20T03:06:25;3.70;1.00
19924;DHT22;10124;53.068;18.224;2022-12-20T03:08:52;1.80;1.00
19924;DHT22;10124;53.068;18.224;2022-12-20T03:11:24;1.70;10.00
19924;DHT22;10124;53.068;18.224;2022-12-20T03:16:20;1.90;1.00
19924;DHT22;10124;53.068;18.224;2022-12-20T03:18:48;2.30;1.00
19924;DHT22;10124;53.068;18.224;2022-12-20T03:21:15;1.90;1.00
19924;DHT22;10124;53.068;18.224;2022-12-20T03:23:43;1.80;1.00
19924;DHT22;10124;53.068;18.224;2022-12-20T03:26:10;3.30;1.00
19924;DHT22;10124;53.068;18.224;2022-12-20T03:28:45;1.90;1.00
19924;DHT22;10124;53.068;18.224;2022-12-20T03:33:50;1.90;1.00
19924;DHT22;10124;53.068;18.224;2022-12-20T03:36:18;1.90;1.00
19924;DHT22;10124;53.068;18.224;2022-12-20T03:38:55;1.90;1.00
19924;DHT22;10124;53.068;18.224;2022-12-20T03:41:24;2.00;1.00
19924;DHT22;10124;53.068;18.224;2022-12-20T03:43:53;1.90;1.00
19924;DHT22;10124;53.068;18.224;2022-12-20T03:46:21;1.90;1.00
19924;DHT22;10124;53.068;18.224;2022-12-20T03:48:49;1.90;1.00
19924;DHT22;10124;53.068;18.224;2022-12-20T03:51:17;2.00;1.00
19924;DHT22;10124;53.068;18.224;2022-12-20T03:53:45;2.00;1.00
19924;DHT22;10124;53.068;18.224;2022-12-20T03:56:14;2.00;1.00
19924;DHT22;10124;53.068;18.224;2022-12-20T03:58:43;3.90;1.00
19924;DHT22;10124;53.068;18.224;2022-12-20T04:01:30;2.00;1.00
19924;DHT22;10124;53.068;18.224;2022-12-20T04:04:04;2.90;1.00
19924;DHT22;10124;53.068;18.224;2022-12-20T04:06:31;3.90;99.90
19924;DHT22;10124;53.068;18.224;2022-12-20T04:08:59;2.00;1.00
19924;DHT22;10124;53.068;18.224;2022-12-20T04:11:32;2.10;99.90
19924;DHT22;10124;53.068;18.224;2022-12-20T04:14:13;2.10;99.90
19924;DHT22;10124;53.068;18.224;2022-12-20T04:16:40;2.00;99.90
19924;DHT22;10124;53.068;18.224;2022-12-20T04:19:09;2.00;99.90
19924;DHT22;10124;53.068;18.224;2022-12-20T04:21:45;2.90;99.90
19924;DHT22;10124;53.068;18.224;2022-12-20T04:24:14;2.00;99.90
19924;DHT22;10124;53.068;18.224;2022-12-20T04:27:05;2.10;99.90
19924;DHT22;10124;53.068;18.224;2022-12-20T04:29:33;2.10;99.90
19924;DHT22;10124;53.068;18.224;2022-12-20T04:32:02;2.00;1.00
19924;DHT22;10124;53.068;18.224;2022-12-20T04:34:29;2.00;52.20
19924;DHT22;10124;53.068;18.224;2022-12-20T04:36:57;2.00;1.00
19924;DHT22;10124;53.068;18.224;2022-12-20T04:39:37;2.10;99.90
19924;DHT22;10124;53.068;18.224;2022-12-20T04:42:26;2.10;1.00
19924;DHT22;10124;53.068;18.224;2022-12-20T04:44:55;2.70;1.00
19924;DHT22;10124;53.068;18.224;2022-12-20T04:47:26;2.10;1.00
19924;DHT22;10124;53.068;18.224;2022-12-20T04:49:54;2.20;1.00
19924;DHT22;10124;53.068;18.224;2022-12-20T04:52:22;2.10;1.00
19924;DHT22;10124;53.068;18.224;2022-12-20T04:55:14;2.20;99.90
19924;DHT22;10124;53.068;18.224;2022-12-20T04:57:42;2.20;1.00
19924;DHT22;10124;53.068;18.224;2022-12-20T05:00:11;2.20;1.00
19924;DHT22;10124;53.068;18.224;2022-12-20T05:02:43;2.20;1.00
19924;DHT22;10124;53.068;18.224;2022-12-20T05:05:15;2.30;99.90
19924;DHT22;10124;53.068;18.224;2022-12-20T05:07:49;2.30;99.90
19924;DHT22;10124;53.068;18.224;2022-12-20T05:10:18;2.30;99.90
19924;DHT22;10124;53.068;18.224;2022-12-20T05:12:46;4.20;1.00
19924;DHT22;10124;53.068;18.224;2022-12-20T05:15:23;3.00;1.00
19924;DHT22;10124;53.068;18.224;2022-12-20T05:17:51;2.30;1.00
19924;DHT22;10124;53.068;18.224;2022-12-20T05:20:18;2.40;1.00
19924;DHT22;10124;53.068;18.224;2022-12-20T05:22:47;2.40;1.00
19924;DHT22;10124;53.068;18.224;2022-12-20T05:25:34;2.40;1.00
19924;DHT22;10124;53.068;18.224;2022-12-20T05:28:20;2.40;1.00
19924;DHT22;10124;53.068;18.224;2022-12-20T05:30:48;2.90;1.00
19924;DHT22;10124;53.068;18.224;2022-12-20T05:33:15;2.40;1.00
19924;DHT22;10124;53.068;18.224;2022-12-20T05:35:43;2.50;1.00
19924;DHT22;10124;53.068;18.224;2022-12-20T05:38:13;2.50;1.00
19924;DHT22;10124;53.068;18.224;2022-12-20T05:40:41;2.50;1.00
19924;DHT22;10124;53.068;18.224;2022-12-20T05:43:10;2.40;1.00
19924;DHT22;10124;53.068;18.224;2022-12-20T05:45:49;2.40;1.00
19924;DHT22;10124;53.068;18.224;2022-12-20T05:48:21;2.40;1.00
19924;DHT22;10124;53.068;18.224;2022-12-20T05:50:48;2.50;1.00
19924;DHT22;10124;53.068;18.224;2022-12-20T05:53:24;2.50;1.00
19924;DHT22;10124;53.068;18.224;2022-12-20T05:55:56;2.50;1.00
19924;DHT22;10124;53.068;18.224;2022-12-20T05:58:28;2.50;1.00
19924;DHT22;10124;53.068;18.224;2022-12-20T06:01:01;2.50;1.00
19924;DHT22;10124;53.068;18.224;2022-12-20T06:03:31;2.50;1.00
19924;DHT22;10124;53.068;18.224;2022-12-20T06:06:02;2.50;99.90
19924;DHT22;10124;53.068;18.224;2022-12-20T06:08:36;2.50;99.90
19924;DHT22;10124;53.068;18.224;2022-12-20T06:11:08;2.60;99.90
19924;DHT22;10124;53.068;18.224;2022-12-20T06:13:45;2.50;99.90
19924;DHT22;10124;53.068;18.224;2022-12-20T06:16:13;3.20;99.90
19924;DHT22;10124;53.068;18.224;2022-12-20T06:18:40;2.40;99.90
19924;DHT22;10124;53.068;18.224;2022-12-20T06:21:11;2.50;99.90
19924;DHT22;10124;53.068;18.224;2022-12-20T06:23:39;3.30;99.90
19924;DHT22;10124;53.068;18.224;2022-12-20T06:26:11;4.70;99.90
19924;DHT22;10124;53.068;18.224;2022-12-20T06:28:46;2.50;99.90
19924;DHT22;10124;53.068;18.224;2022-12-20T06:31:34;2.50;99.90
19924;DHT22;10124;53.068;18.224;2022-12-20T06:34:01;2.50;99.90
19924;DHT22;10124;53.068;18.224;2022-12-20T06:36:33;2.40;99.90
19924;DHT22;10124;53.068;18.224;2022-12-20T06:39:01;4.10;99.90
19924;DHT22;10124;53.068;18.224;2022-12-20T06:41:39;2.40;99.90
19924;DHT22;10124;53.068;18.224;2022-12-20T06:44:07;2.40;99.90
19924;DHT22;10124;53.068;18.224;2022-12-20T06:46:35;2.40;99.90
19924;DHT22;10124;53.068;18.224;2022-12-20T06:49:02;2.30;99.90
19924;DHT22;10124;53.068;18.224;2022-12-20T06:51:31;2.30;99.90
19924;DHT22;10124;53.068;18.224;2022-12-20T06:53:59;2.30;99.90
19924;DHT22;10124;53.068;18.224;2022-12-20T06:56:30;2.10;99.90
19924;DHT22;10124;53.068;18.224;2022-12-20T06:59:08;2.50;99.90
19924;DHT22;10124;53.068;18.224;2022-12-20T07:01:36;2.40;99.90
19924;DHT22;10124;53.068;18.224;2022-12-20T07:04:03;2.40;99.90
19924;DHT22;10124;53.068;18.224;2022-12-20T07:06:31;2.50;99.90
19924;DHT22;10124;53.068;18.224;2022-12-20T07:08:58;4.80;99.90
19924;DHT22;10124;53.068;18.224;2022-12-20T07:11:26;2.50;99.90
19924;DHT22;10124;53.068;18.224;2022-12-20T07:13:55;2.60;99.90
19924;DHT22;10124;53.068;18.224;2022-12-20T07:16:23;2.60;99.90
19924;DHT22;10124;53.068;18.224;2022-12-20T07:18:52;2.60;99.90
19924;DHT22;10124;53.068;18.224;2022-12-20T07:21:20;3.40;99.90
19924;DHT22;10124;53.068;18.224;2022-12-20T07:23:48;2.70;99.90
19924;DHT22;10124;53.068;18.224;2022-12-20T07:26:15;2.70;99.90
19924;DHT22;10124;53.068;18.224;2022-12-20T07:28:43;2.70;99.90
19924;DHT22;10124;53.068;18.224;2022-12-20T07:31:11;2.70;99.90
19924;DHT22;10124;53.068;18.224;2022-12-20T07:33:38;4.10;99.90
19924;DHT22;10124;53.068;18.224;2022-12-20T07:36:09;2.80;99.90
19924;DHT22;10124;53.068;18.224;2022-12-20T07:38:37;2.90;99.90
19924;DHT22;10124;53.068;18.224;2022-12-20T07:41:14;2.80;99.90
19924;DHT22;10124;53.068;18.224;2022-12-20T07:43:42;3.20;99.90
19924;DHT22;10124;53.068;18.224;2022-12-20T07:46:12;2.90;68.70
19924;DHT22;10124;53.068;18.224;2022-12-20T07:51:18;2.90;15.00
19924;DHT22;10124;53.068;18.224;2022-12-20T07:53:50;3.00;16.00
19924;DHT22;10124;53.068;18.224;2022-12-20T07:56:20;2.90;29.40
19924;DHT22;10124;53.068;18.224;2022-12-20T07:58:52;2.90;1.00
19924;DHT22;10124;53.068;18.224;2022-12-20T08:01:20;3.00;36.00
19924;DHT22;10124;53.068;18.224;2022-12-20T08:03:51;3.00;4.60
19924;DHT22;10124;53.068;18.224;2022-12-20T08:06:20;2.90;18.60
19924;DHT22;10124;53.068;18.224;2022-12-20T08:08:51;3.00;1.00
19924;DHT22;10124;53.068;18.224;2022-12-20T08:11:21;3.10;1.00
19924;DHT22;10124;53.068;18.224;2022-12-20T08:13:50;3.10;1.00
19924;DHT22;10124;53.068;18.224;2022-12-20T08:16:25;3.10;1.00
19924;DHT22;10124;53.068;18.224;2022-12-20T08:18:52;3.10;1.00
19924;DHT22;10124;53.068;18.224;2022-12-20T08:21:20;3.10;1.00
19924;DHT22;10124;53.068;18.224;2022-12-20T08:23:48;3.10;1.00
19924;DHT22;10124;53.068;18.224;2022-12-20T08:26:16;3.10;1.00
19924;DHT22;10124;53.068;18.224;2022-12-20T08:28:44;3.20;1.00
19924;DHT22;10124;53.068;18.224;2022-12-20T08:31:14;3.20;1.00
19924;DHT22;10124;53.068;18.224;2022-12-20T08:33:42;3.20;1.00
19924;DHT22;10124;53.068;18.224;2022-12-20T08:36:12;3.20;1.00
19924;DHT22;10124;53.068;18.224;2022-12-20T08:38:40;3.30;1.00
19924;DHT22;10124;53.068;18.224;2022-12-20T08:41:10;3.20;1.00
19924;DHT22;10124;53.068;18.224;2022-12-20T08:43:39;3.20;1.00
19924;DHT22;10124;53.068;18.224;2022-12-20T08:46:09;3.40;1.00
19924;DHT22;10124;53.068;18.224;2022-12-20T08:48:39;3.40;1.00
19924;DHT22;10124;53.068;18.224;2022-12-20T08:51:09;3.30;1.00
19924;DHT22;10124;53.068;18.224;2022-12-20T08:53:39;3.40;1.00
19924;DHT22;10124;53.068;18.224;2022-12-20T08:56:15;3.50;1.00
19924;DHT22;10124;53.068;18.224;2022-12-20T08:58:44;3.50;1.00
19924;DHT22;10124;53.068;18.224;2022-12-20T09:01:15;3.60;1.00
19924;DHT22;10124;53.068;18.224;2022-12-20T09:03:44;3.60;1.00
19924;DHT22;10124;53.068;18.224;2022-12-20T09:06:19;3.70;1.00
19924;DHT22;10124;53.068;18.224;2022-12-20T09:08:48;3.70;1.00
19924;DHT22;10124;53.068;18.224;2022-12-20T09:11:18;3.90;1.00
19924;DHT22;10124;53.068;18.224;2022-12-20T09:13:48;3.80;1.00
19924;DHT22;10124;53.068;18.224;2022-12-20T09:16:19;4.00;1.00
19924;DHT22;10124;53.068;18.224;2022-12-20T09:18:53;5.20;1.00
19924;DHT22;10124;53.068;18.224;2022-12-20T09:21:31;4.10;1.00
19924;DHT22;10124;53.068;18.224;2022-12-20T09:23:59;4.30;1.00
19924;DHT22;10124;53.068;18.224;2022-12-20T09:26:27;4.30;1.00
19924;DHT22;10124;53.068;18.224;2022-12-20T09:28:54;4.30;1.00
19924;DHT22;10124;53.068;18.224;2022-12-20T09:31:24;4.30;1.00
19924;DHT22;10124;53.068;18.224;2022-12-20T09:33:54;4.30;99.90
19924;DHT22;10124;53.068;18.224;2022-12-20T09:36:23;4.30;99.90
19924;DHT22;10124;53.068;18.224;2022-12-20T09:38:54;4.30;99.90
19924;DHT22;10124;53.068;18.224;2022-12-20T09:43:58;4.30;99.90
19924;DHT22;10124;53.068;18.224;2022-12-20T09:46:27;4.20;99.90
19924;DHT22;10124;53.068;18.224;2022-12-20T09:48:56;4.20;99.90
19924;DHT22;10124;53.068;18.224;2022-12-20T09:51:34;4.20;99.90
19924;DHT22;10124;53.068;18.224;2022-12-20T09:54:27;4.20;99.90
19924;DHT22;10124;53.068;18.224;2022-12-20T09:59:42;4.20;99.90
19924;DHT22;10124;53.068;18.224;2022-12-20T10:02:20;4.20;99.90
19924;DHT22;10124;53.068;18.224;2022-12-20T10:05:15;4.20;99.90
19924;DHT22;10124;53.068;18.224;2022-12-20T10:10:41;4.10;99.90
19924;DHT22;10124;53.068;18.224;2022-12-20T10:14:24;4.20;99.90
19924;DHT22;10124;53.068;18.224;2022-12-20T10:16:24;4.20;99.90
19924;DHT22;10124;53.068;18.224;2022-12-20T10:19:10;3.80;99.90
19924;DHT22;10124;53.068;18.224;2022-12-20T10:22:13;3.30;99.90
19924;DHT22;10124;53.068;18.224;2022-12-20T10:24:58;4.20;99.90
19924;DHT22;10124;53.068;18.224;2022-12-20T10:27:28;4.40;99.90
19924;DHT22;10124;53.068;18.224;2022-12-20T10:29:56;4.40;99.90
19924;DHT22;10124;53.068;18.224;2022-12-20T10:32:23;4.40;99.90
19924;DHT22;10124;53.068;18.224;2022-12-20T10:35:36;4.60;99.90
19924;DHT22;10124;53.068;18.224;2022-12-20T10:38:06;4.60;99.90
19924;DHT22;10124;53.068;18.224;2022-12-20T10:40:38;4.70;99.90
19924;DHT22;10124;53.068;18.224;2022-12-20T10:43:27;4.50;99.90
19924;DHT22;10124;53.068;18.224;2022-12-20T10:46:05;4.70;99.90
19924;DHT22;10124;53.068;18.224;2022-12-20T10:53:51;4.70;99.90
19924;DHT22;10124;53.068;18.224;2022-12-20T10:56:32;4.60;99.90
19924;DHT22;10124;53.068;18.224;2022-12-20T11:12:11;4.60;99.90
19924;DHT22;10124;53.068;18.224;2022-12-20T11:14:41;4.50;99.90
19924;DHT22;10124;53.068;18.224;2022-12-20T11:33:48;4.30;99.90
19924;DHT22;10124;53.068;18.224;2022-12-20T11:39:31;4.30;99.90
19924;DHT22;10124;53.068;18.224;2022-12-20T11:45:08;4.30;99.90
19924;DHT22;10124;53.068;18.224;2022-12-20T11:56:17;4.30;1.00
19924;DHT22;10124;53.068;18.224;2022-12-20T11:58:51;4.40;99.90
19924;DHT22;10124;53.068;18.224;2022-12-20T12:01:25;4.40;99.90
19924;DHT22;10124;53.068;18.224;2022-12-20T12:04:12;4.40;99.90
19924;DHT22;10124;53.068;18.224;2022-12-20T12:06:47;4.40;99.90
19924;DHT22;10124;53.068;18.224;2022-12-20T12:09:45;4.30;99.90
19924;DHT22;10124;53.068;18.224;2022-12-20T12:12:30;4.30;99.90
19924;DHT22;10124;53.068;18.224;2022-12-20T12:26:23;4.10;99.90
19924;DHT22;10124;53.068;18.224;2022-12-20T12:29:05;4.20;99.90
19924;DHT22;10124;53.068;18.224;2022-12-20T12:48:17;4.50;99.90
19924;DHT22;10124;53.068;18.224;2022-12-20T12:50:49;4.40;99.90
19924;DHT22;10124;53.068;18.224;2022-12-20T12:55:56;4.30;99.90
19924;DHT22;10124;53.068;18.224;2022-12-20T13:01:54;4.30;99.90
19924;DHT22;10124;53.068;18.224;2022-12-20T13:04:27;4.20;99.90
19924;DHT22;10124;53.068;18.224;2022-12-20T13:07:02;4.20;99.90
19924;DHT22;10124;53.068;18.224;2022-12-20T13:11:58;4.10;99.90
19924;DHT22;10124;53.068;18.224;2022-12-20T13:19:54;4.10;99.90
19924;DHT22;10124;53.068;18.224;2022-12-20T13:22:23;4.00;99.90
19924;DHT22;10124;53.068;18.224;2022-12-20T13:24:54;4.00;99.90
19924;DHT22;10124;53.068;18.224;2022-12-20T13:38:07;4.00;99.90
19924;DHT22;10124;53.068;18.224;2022-12-20T13:40:56;3.80;99.90
19924;DHT22;10124;53.068;18.224;2022-12-20T13:43:35;4.10;99.90
19924;DHT22;10124;53.068;18.224;2022-12-20T13:46:18;3.80;99.90
19924;DHT22;10124;53.068;18.224;2022-12-20T13:49:04;3.80;99.90
19924;DHT22;10124;53.068;18.224;2022-12-20T13:51:35;3.80;99.90
19924;DHT22;10124;53.068;18.224;2022-12-20T13:54:13;3.90;99.90
19924;DHT22;10124;53.068;18.224;2022-12-20T13:56:49;3.80;99.90
19924;DHT22;10124;53.068;18.224;2022-12-20T13:59:29;3.90;99.90
19924;DHT22;10124;53.068;18.224;2022-12-20T14:02:03;3.70;99.90
19924;DHT22;10124;53.068;18.224;2022-12-20T14:04:43;3.70;99.90
19924;DHT22;10124;53.068;18.224;2022-12-20T14:07:16;3.80;99.90
19924;DHT22;10124;53.068;18.224;2022-12-20T14:09:55;3.60;99.90
19924;DHT22;10124;53.068;18.224;2022-12-20T14:12:25;3.80;99.90
19924;DHT22;10124;53.068;18.224;2022-12-20T14:15:20;3.40;99.90
19924;DHT22;10124;53.068;18.224;2022-12-20T14:17:48;3.80;99.90
19924;DHT22;10124;53.068;18.224;2022-12-20T14:20:21;4.10;99.90
19924;DHT22;10124;53.068;18.224;2022-12-20T14:25:39;4.10;99.90
19924;DHT22;10124;53.068;18.224;2022-12-20T14:28:34;3.80;99.90
19924;DHT22;10124;53.068;18.224;2022-12-20T14:31:05;3.20;99.90
19924;DHT22;10124;53.068;18.224;2022-12-20T14:33:38;3.50;99.90
19924;DHT22;10124;53.068;18.224;2022-12-20T14:36:27;3.80;99.90
19924;DHT22;10124;53.068;18.224;2022-12-20T14:44:25;3.70;99.90
19924;DHT22;10124;53.068;18.224;2022-12-20T14:46:52;3.60;99.90
19924;DHT22;10124;53.068;18.224;2022-12-20T14:52:03;3.50;99.90
19924;DHT22;10124;53.068;18.224;2022-12-20T14:54:33;3.50;99.90
19924;DHT22;10124;53.068;18.224;2022-12-20T14:57:25;3.50;99.90
19924;DHT22;10124;53.068;18.224;2022-12-20T15:08:27;3.60;99.90
19924;DHT22;10124;53.068;18.224;2022-12-20T15:16:20;3.70;99.90
19924;DHT22;10124;53.068;18.224;2022-12-20T15:18:51;3.70;99.90
19924;DHT22;10124;53.068;18.224;2022-12-20T15:21:32;3.60;99.90
19924;DHT22;10124;53.068;18.224;2022-12-20T15:24:04;3.60;99.90
19924;DHT22;10124;53.068;18.224;2022-12-20T15:29:05;3.70;99.90
19924;DHT22;10124;53.068;18.224;2022-12-20T15:31:34;3.50;99.90
19924;DHT22;10124;53.068;18.224;2022-12-20T15:34:10;3.50;1.00
19924;DHT22;10124;53.068;18.224;2022-12-20T15:39:09;3.50;1.00
19924;DHT22;10124;53.068;18.224;2022-12-20T15:41:43;3.40;99.90
19924;DHT22;10124;53.068;18.224;2022-12-20T15:44:26;3.60;1.00
19924;DHT22;10124;53.068;18.224;2022-12-20T15:49:26;3.30;99.90
19924;DHT22;10124;53.068;18.224;2022-12-20T15:54:29;3.60;1.00
19924;DHT22;10124;53.068;18.224;2022-12-20T15:57:01;3.20;99.90
19924;DHT22;10124;53.068;18.224;2022-12-20T15:59:30;2.80;99.90
19924;DHT22;10124;53.068;18.224;2022-12-20T16:04:51;3.10;99.90
19924;DHT22;10124;53.068;18.224;2022-12-20T16:12:24;3.20;99.90
19924;DHT22;10124;53.068;18.224;2022-12-20T16:17:23;3.80;99.90
19924;DHT22;10124;53.068;18.224;2022-12-20T16:22:22;3.50;1.00
19924;DHT22;10124;53.068;18.224;2022-12-20T16:27:22;3.20;1.00
19924;DHT22;10124;53.068;18.224;2022-12-20T16:32:19;2.40;1.00
19924;DHT22;10124;53.068;18.224;2022-12-20T16:34:51;3.10;1.00
19924;DHT22;10124;53.068;18.224;2022-12-20T16:39:48;3.00;1.00
19924;DHT22;10124;53.068;18.224;2022-12-20T16:42:18;3.40;1.00
19924;DHT22;10124;53.068;18.224;2022-12-20T16:44:51;3.20;99.90
19924;DHT22;10124;53.068;18.224;2022-12-20T16:47:20;3.30;99.90
19924;DHT22;10124;53.068;18.224;2022-12-20T16:54:51;3.20;99.90
19924;DHT22;10124;53.068;18.224;2022-12-20T17:02:29;3.00;1.00
19924;DHT22;10124;53.068;18.224;2022-12-20T17:05:02;3.10;1.00
19924;DHT22;10124;53.068;18.224;2022-12-20T17:10:08;3.20;99.90
19924;DHT22;10124;53.068;18.224;2022-12-20T17:15:18;2.80;1.00
19924;DHT22;10124;53.068;18.224;2022-12-20T17:17:48;2.90;99.90
19924;DHT22;10124;53.068;18.224;2022-12-20T17:20:20;3.10;1.00
19924;DHT22;10124;53.068;18.224;2022-12-20T17:22:50;3.00;1.00
19924;DHT22;10124;53.068;18.224;2022-12-20T17:25:29;2.80;1.00
19924;DHT22;10124;53.068;18.224;2022-12-20T17:28:02;2.90;73.50
19924;DHT22;10124;53.068;18.224;2022-12-20T17:30:34;2.70;1.00
19924;DHT22;10124;53.068;18.224;2022-12-20T17:33:03;2.90;85.10
19924;DHT22;10124;53.068;18.224;2022-12-20T17:35:32;3.00;99.90
19924;DHT22;10124;53.068;18.224;2022-12-20T17:45:33;2.60;1.00
19924;DHT22;10124;53.068;18.224;2022-12-20T17:50:35;2.70;99.90
19924;DHT22;10124;53.068;18.224;2022-12-20T17:58:02;2.40;1.00
19924;DHT22;10124;53.068;18.224;2022-12-20T18:05:34;4.10;1.00
19924;DHT22;10124;53.068;18.224;2022-12-20T18:10:35;3.30;99.90
19924;DHT22;10124;53.068;18.224;2022-12-20T18:50:06;3.50;99.90
19924;DHT22;10124;53.068;18.224;2022-12-20T19:47:16;3.60;99.90
19924;DHT22;10124;53.068;18.224;2022-12-20T20:09:48;3.70;99.90
19924;DHT22;10124;53.068;18.224;2022-12-20T20:39:28;3.80;99.90
19924;DHT22;10124;53.068;18.224;2022-12-20T20:49:22;3.80;99.90
19924;DHT22;10124;53.068;18.224;2022-12-20T21:11:39;3.30;1.00
19924;DHT22;10124;53.068;18.224;2022-12-20T21:16:39;3.40;99.90
19924;DHT22;10124;53.068;18.224;2022-12-20T21:19:08;3.40;99.90
19924;DHT22;10124;53.068;18.224;2022-12-20T21:38:56;3.40;99.90
19924;DHT22;10124;53.068;18.224;2022-12-20T21:41:26;3.40;99.90
19924;DHT22;10124;53.068;18.224;2022-12-20T21:43:56;3.40;99.90
19924;DHT22;10124;53.068;18.224;2022-12-20T21:51:23;3.50;99.90
19924;DHT22;10124;53.068;18.224;2022-12-20T21:53:54;3.50;99.90
19924;DHT22;10124;53.068;18.224;2022-12-20T21:56:22;3.60;99.90
19924;DHT22;10124;53.068;18.224;2022-12-20T22:01:21;3.60;99.90
19924;DHT22;10124;53.068;18.224;2022-12-20T22:03:55;3.90;1.00
19924;DHT22;10124;53.068;18.224;2022-12-20T22:08:59;3.40;99.90
19924;DHT22;10124;53.068;18.224;2022-12-20T22:16:25;3.40;99.90
19924;DHT22;10124;53.068;18.224;2022-12-20T22:18:55;3.50;99.90
19924;DHT22;10124;53.068;18.224;2022-12-20T22:21:25;3.50;99.90
19924;DHT22;10124;53.068;18.224;2022-12-20T22:23:55;3.40;99.90
19924;DHT22;10124;53.068;18.224;2022-12-20T22:26:25;3.40;99.90
19924;DHT22;10124;53.068;18.224;2022-12-20T22:28:56;3.50;99.90
19924;DHT22;10124;53.068;18.224;2022-12-20T22:33:53;3.50;99.90
19924;DHT22;10124;53.068;18.224;2022-12-20T22:38:51;3.30;99.90
19924;DHT22;10124;53.068;18.224;2022-12-20T22:41:22;3.40;99.90
19924;DHT22;10124;53.068;18.224;2022-12-20T23:11:22;3.40;98.80
19924;DHT22;10124;53.068;18.224;2022-12-20T23:14:16;3.40;98.90
19924;DHT22;10124;53.068;18.224;2022-12-20T23:17:05;3.30;99.80
19924;DHT22;10124;53.068;18.224;2022-12-20T23:19:34;3.40;99.00
19924;DHT22;10124;53.068;18.224;2022-12-20T23:22:22;3.40;98.60
19924;DHT22;10124;53.068;18.224;2022-12-20T23:25:15;3.40;98.00
19924;DHT22;10124;53.068;18.224;2022-12-20T23:27:45;3.40;98.10
19924;DHT22;10124;53.068;18.224;2022-12-20T23:30:16;3.40;97.10
19924;DHT22;10124;53.068;18.224;2022-12-20T23:35:16;3.30;97.60
19924;DHT22;10124;53.068;18.224;2022-12-20T23:40:14;3.20;99.40
19924;DHT22;10124;53.068;18.224;2022-12-20T23:42:43;3.20;99.00
